Time;durP1;ratioP1;P1;durP2;ratioP2;P2;SDS_P1;SDS_P2;PMS_P1;PMS_P2;Temp;Humidity;BMP_temperature;BMP_pressure;BME280_temperature;BME280_humidity;BME280_pressure;Samples;Min_cycle;Max_cycle;Signal;HPM_P1;HPM_P2
2022/08/27 00:02:14;;;;;;;26.88;12.02;;;;;;;19.94;49.83;100058.88;5036718;28;20064;-75
2022/08/27 00:04:41;;;;;;;21.70;12.15;;;;;;;19.98;50.05;100073.81;5053521;28;20049;-76
2022/08/27 00:07:07;;;;;;;23.67;13.20;;;;;;;19.94;50.06;100067.00;5037011;28;20048;-75
2022/08/27 00:09:34;;;;;;;20.20;12.43;;;;;;;19.93;49.79;100064.44;5054567;28;20045;-75
2022/08/27 00:12:00;;;;;;;19.38;12.80;;;;;;;19.89;50.17;100061.22;5037236;28;20051;-75
2022/08/27 00:14:27;;;;;;;22.60;12.75;;;;;;;19.87;49.83;100068.69;5036695;28;20090;-75
2022/08/27 00:16:54;;;;;;;29.75;12.57;;;;;;;19.76;50.17;100064.41;5036330;28;20049;-75
2022/08/27 00:19:21;;;;;;;21.13;12.07;;;;;;;19.59;50.29;100063.44;5052951;28;20071;-74
2022/08/27 00:21:47;;;;;;;25.55;11.98;;;;;;;19.58;50.23;100072.59;5053140;28;20036;-75
2022/08/27 00:24:13;;;;;;;34.33;12.48;;;;;;;19.60;50.25;100070.59;5019972;28;20072;-75
2022/08/27 00:26:39;;;;;;;21.52;12.60;;;;;;;19.58;50.64;100074.47;5052902;28;20043;-74
2022/08/27 00:29:07;;;;;;;21.33;12.02;;;;;;;19.53;50.63;100063.28;5036217;28;20041;-75
2022/08/27 00:31:34;;;;;;;25.40;11.82;;;;;;;19.63;50.46;100081.16;5019931;28;20068;-75
2022/08/27 00:34:00;;;;;;;22.02;11.63;;;;;;;19.57;50.41;100065.50;5052829;28;20033;-74
2022/08/27 00:36:26;;;;;;;17.23;11.98;;;;;;;19.59;50.42;100078.88;5052853;28;20431;-74
2022/08/27 00:38:52;;;;;;;26.70;12.20;;;;;;;19.59;50.52;100074.28;5054016;28;20041;-76
2022/08/27 00:41:19;;;;;;;21.27;12.43;;;;;;;19.62;50.08;100087.56;5036167;28;20139;-76
2022/08/27 00:43:52;;;;;;;18.52;12.50;;;;;;;19.54;50.19;100084.78;5036029;28;20083;-75
2022/08/27 00:46:29;;;;;;;23.50;12.63;;;;;;;19.47;50.26;100080.19;5019854;28;20419;-74
2022/08/27 00:49:03;;;;;;;18.63;12.88;;;;;;;19.42;50.79;100075.25;5036008;28;20045;-74
2022/08/27 00:51:30;;;;;;;18.50;13.00;;;;;;;19.50;50.68;100086.13;5036209;28;20041;-75
2022/08/27 00:53:57;;;;;;;21.20;12.18;;;;;;;19.48;50.55;100090.84;5019169;28;20110;-75
2022/08/27 00:56:33;;;;;;;20.95;12.05;;;;;;;19.57;50.77;100092.59;5019629;28;20037;-75
2022/08/27 00:59:01;;;;;;;25.25;12.07;;;;;;;19.65;50.41;100095.38;5019252;28;20048;-75
2022/08/27 01:01:31;;;;;;;22.45;12.27;;;;;;;19.66;50.36;100101.66;5036075;28;20491;-74
2022/08/27 01:04:01;;;;;;;16.48;12.10;;;;;;;19.70;50.22;100102.19;5035706;28;20049;-75
2022/08/27 01:06:35;;;;;;;25.20;12.30;;;;;;;19.68;50.25;100096.94;5035603;28;20052;-76
2022/08/27 01:09:08;;;;;;;17.95;11.80;;;;;;;19.63;50.20;100089.28;5036096;28;20128;-74
2022/08/27 01:11:36;;;;;;;26.73;12.65;;;;;;;19.61;50.13;100088.56;5052136;28;20051;-75
2022/08/27 01:14:02;;;;;;;20.55;12.45;;;;;;;19.58;50.30;100088.88;5052116;28;20099;-74
2022/08/27 01:16:35;;;;;;;21.92;12.25;;;;;;;19.70;50.38;100096.75;5018990;28;20037;-75
2022/08/27 01:19:06;;;;;;;25.10;12.10;;;;;;;19.77;50.42;100098.66;5018734;28;20416;-73
2022/08/27 01:21:44;;;;;;;25.27;12.35;;;;;;;19.85;50.18;100095.13;5035101;28;20060;-75
2022/08/27 01:24:29;;;;;;;20.20;12.60;;;;;;;19.83;50.00;100092.56;5035637;28;20451;-75
2022/08/27 01:26:58;;;;;;;26.75;12.48;;;;;;;19.86;50.64;100094.13;5035473;28;20047;-75
2022/08/27 01:29:24;;;;;;;25.45;12.52;;;;;;;19.93;50.37;100114.13;5052149;28;20036;-75
2022/08/27 01:31:50;;;;;;;21.75;12.52;;;;;;;19.96;50.96;100113.81;5053366;28;20123;-74
2022/08/27 01:34:16;;;;;;;22.33;12.25;;;;;;;19.98;50.25;100119.94;5034757;28;20151;-74
2022/08/27 01:36:42;;;;;;;24.85;12.65;;;;;;;19.97;50.17;100118.25;5051685;28;20504;-74
2022/08/27 01:39:08;;;;;;;20.73;13.10;;;;;;;20.01;50.21;100122.31;5051648;28;20045;-75
2022/08/27 01:41:34;;;;;;;20.35;12.93;;;;;;;20.02;50.33;100124.00;5052903;28;20488;-74
2022/08/27 01:43:59;;;;;;;20.20;14.00;;;;;;;19.96;50.54;100115.69;5034863;28;20056;-76
2022/08/27 01:46:27;;;;;;;22.65;13.38;;;;;;;20.04;50.73;100116.53;5051767;28;20490;-75
2022/08/27 01:48:54;;;;;;;28.20;13.93;;;;;;;20.11;50.26;100122.16;5051647;28;20052;-75
2022/08/27 01:51:20;;;;;;;26.08;14.85;;;;;;;20.16;51.09;100118.94;5051599;28;20063;-75
2022/08/27 01:53:46;;;;;;;36.72;15.50;;;;;;;20.19;51.43;100124.06;5051080;28;20044;-75
2022/08/27 01:56:12;;;;;;;29.33;16.15;;;;;;;20.20;52.03;100125.75;5050941;28;20087;-76
2022/08/27 01:58:39;;;;;;;32.35;16.90;;;;;;;20.14;52.00;100117.25;5051310;28;20048;-76
2022/08/27 02:01:10;;;;;;;38.38;16.40;;;;;;;20.18;52.52;100138.66;5051716;28;20067;-76
2022/08/27 02:03:37;;;;;;;27.48;15.70;;;;;;;20.16;52.55;100132.53;5018770;28;20511;-79
2022/08/27 02:06:06;;;;;;;26.23;15.48;;;;;;;20.18;52.82;100125.06;5019406;28;20048;-80
2022/08/27 02:08:32;;;;;;;;;;;;;;;20.26;52.57;100142.22;5051949;28;20037;-76
2022/08/27 02:10:59;;;;;;;32.05;16.73;;;;;;;20.24;52.71;100138.84;5035953;28;20350;-80
2022/08/27 02:13:26;;;;;;;28.85;16.60;;;;;;;20.21;52.82;100143.75;5034224;28;20037;-79
2022/08/27 02:15:52;;;;;;;32.90;17.75;;;;;;;20.20;53.02;100142.91;5045415;28;20037;-78
2022/08/27 02:18:18;;;;;;;37.22;16.98;;;;;;;20.30;52.88;100148.19;5052151;28;20073;-76
2022/08/27 02:20:46;;;;;;;24.17;14.82;;;;;;;20.28;51.67;100150.22;5052672;28;20114;-75
2022/08/27 02:23:13;;;;;;;32.47;14.85;;;;;;;20.19;51.34;100134.91;5051472;28;20535;-80
2022/08/27 02:25:40;;;;;;;35.00;15.02;;;;;;;20.28;52.00;100153.78;5018291;28;20040;-79
2022/08/27 02:28:08;;;;;;;27.08;15.00;;;;;;;20.51;52.17;100156.75;5043598;28;20049;-78
2022/08/27 02:30:34;;;;;;;32.30;16.77;;;;;;;20.68;50.71;100154.88;5032402;28;20128;-75
2022/08/27 02:33:03;;;;;;;34.47;17.38;;;;;;;20.70;50.19;100160.19;5015202;28;20523;-77
2022/08/27 02:35:30;;;;;;;;;;;;;;;20.61;50.22;100159.28;5031743;28;20041;-75
2022/08/27 02:37:57;;;;;;;28.08;16.95;;;;;;;20.48;50.54;100151.63;5031445;28;20287;-78
2022/08/27 02:40:24;;;;;;;28.98;17.23;;;;;;;20.44;50.48;100158.41;5015462;28;20431;-76
2022/08/27 02:42:50;;;;;;;36.38;18.08;;;;;;;20.38;50.47;100159.06;5035169;28;20033;-76
2022/08/27 02:45:17;;;;;;;32.38;17.10;;;;;;;20.40;50.61;100165.19;5033961;28;20057;-75
2022/08/27 02:47:43;;;;;;;31.92;17.42;;;;;;;20.37;50.41;100160.06;5032823;28;20041;-76
2022/08/27 02:50:19;;;;;;;31.92;17.85;;;;;;;20.32;50.66;100167.88;5030779;28;20141;-82
2022/08/27 02:52:46;;;;;;;35.53;17.25;;;;;;;20.33;50.67;100169.56;5013358;28;20049;-75
2022/08/27 02:55:13;;;;;;;34.85;18.33;;;;;;;20.36;50.59;100175.53;4996368;28;20049;-75
2022/08/27 02:57:39;;;;;;;35.25;17.25;;;;;;;20.40;50.59;100170.59;5014018;28;20076;-76
2022/08/27 03:00:12;;;;;;;31.60;17.88;;;;;;;20.42;50.74;100168.56;5013733;28;20049;-77
2022/08/27 03:02:38;;;;;;;34.85;17.50;;;;;;;20.47;50.51;100170.81;5031003;28;20056;-76
2022/08/27 03:05:05;;;;;;;35.95;19.00;;;;;;;20.48;50.78;100167.06;5031863;28;20053;-76
2022/08/27 03:07:31;;;;;;;37.78;19.05;;;;;;;20.59;50.92;100180.34;5032146;28;20107;-75
2022/08/27 03:09:57;;;;;;;39.80;18.95;;;;;;;20.72;50.85;100185.28;5034622;28;20493;-75
2022/08/27 03:12:23;;;;;;;35.72;18.08;;;;;;;20.77;50.48;100174.78;5035694;28;20037;-74
2022/08/27 03:14:49;;;;;;;36.05;17.88;;;;;;;20.89;50.39;100172.59;5034036;28;20095;-75
2022/08/27 03:20:04;;;;;;;39.80;19.10;;;;;;;21.12;49.57;100181.75;5033966;28;20056;-75
2022/08/27 03:22:30;;;;;;;33.78;18.00;;;;;;;21.26;49.46;100183.78;5035297;28;20049;-77
2022/08/27 03:24:56;;;;;;;38.50;19.08;;;;;;;21.41;49.76;100192.13;5001432;28;20041;-76
2022/08/27 03:27:22;;;;;;;36.40;18.83;;;;;;;21.54;49.21;100192.44;5035612;28;20136;-75
2022/08/27 03:29:48;;;;;;;34.85;18.45;;;;;;;21.66;49.22;100194.78;5034091;28;20049;-75
2022/08/27 03:32:14;;;;;;;47.42;19.45;;;;;;;21.68;48.88;100176.44;5001261;28;20484;-76
2022/08/27 03:34:40;;;;;;;45.95;19.40;;;;;;;21.81;48.44;100171.28;5035153;28;20046;-75
2022/08/27 03:37:05;;;;;;;45.35;20.38;;;;;;;21.95;48.49;100177.88;5035556;28;20512;-76
2022/08/27 03:39:31;;;;;;;46.10;19.77;;;;;;;22.10;48.36;100186.16;5017438;28;20053;-76
2022/08/27 03:41:57;;;;;;;49.65;20.83;;;;;;;22.15;47.91;100170.16;5033784;28;20048;-75
2022/08/27 03:44:23;;;;;;;58.72;20.48;;;;;;;22.30;47.74;100179.25;5035066;28;20103;-78
2022/08/27 03:46:51;;;;;;;55.45;21.42;;;;;;;22.41;47.67;100178.03;5017555;28;20045;-75
2022/08/27 03:49:19;;;;;;;43.83;20.23;;;;;;;22.52;47.45;100172.16;5033709;28;20045;-76
2022/08/27 03:51:45;;;;;;;40.53;20.10;;;;;;;22.55;47.51;100169.94;5017132;28;20132;-76
2022/08/27 03:54:11;;;;;;;44.05;21.52;;;;;;;22.67;47.13;100167.63;5033583;28;20140;-76
2022/08/27 03:56:38;;;;;;;56.53;22.00;;;;;;;22.86;47.15;100179.94;5017280;28;20037;-74
2022/08/27 03:59:05;;;;;;;56.40;21.48;;;;;;;22.96;46.75;100186.03;5033490;28;20060;-76
2022/08/27 04:01:31;;;;;;;57.80;22.48;;;;;;;23.08;46.66;100183.72;5026802;28;20500;-75
2022/08/27 04:03:58;;;;;;;60.38;23.42;;;;;;;23.21;46.64;100191.28;5036570;28;20151;-76
2022/08/27 04:06:24;;;;;;;46.38;22.52;;;;;;;23.27;46.42;100174.16;5037483;28;20048;-74
2022/08/27 04:08:49;;;;;;;66.22;23.55;;;;;;;23.40;46.42;100184.47;5033591;28;20041;-74
2022/08/27 04:11:16;;;;;;;60.85;22.77;;;;;;;23.54;46.04;100182.78;5034529;28;20049;-74
2022/08/27 04:13:42;;;;;;;54.08;22.23;;;;;;;23.60;46.18;100179.31;5028045;28;20098;-75
2022/08/27 04:16:08;;;;;;;65.05;21.98;;;;;;;23.78;45.65;100193.47;5033373;28;20041;-74
2022/08/27 04:18:34;;;;;;;55.58;23.38;;;;;;;23.89;45.42;100184.81;5032594;28;20053;-73
2022/08/27 04:21:07;;;;;;;58.45;23.52;;;;;;;24.02;45.10;100192.34;5033032;28;20052;-74
2022/08/27 04:23:33;;;;;;;55.25;23.35;;;;;;;24.16;45.03;100191.47;5016528;28;20041;-75
2022/08/27 04:26:04;;;;;;;49.78;24.00;;;;;;;24.27;44.99;100190.16;5000228;28;20416;-78
2022/08/27 04:28:30;;;;;;;59.45;21.38;;;;;;;24.23;43.93;100186.94;5033181;28;20048;-78
2022/08/27 04:30:56;;;;;;;68.72;21.00;;;;;;;24.15;43.73;100188.94;5016304;28;20175;-78
2022/08/27 04:33:22;;;;;;;55.10;20.92;;;;;;;24.17;43.89;100182.25;5032642;28;20136;-80
2022/08/27 04:35:57;;;;;;;70.20;24.60;;;;;;;24.07;44.61;100180.84;5034253;28;20049;-75
2022/08/27 04:38:23;;;;;;;67.10;25.33;;;;;;;24.06;45.25;100185.44;5032982;28;20072;-77
2022/08/27 04:43:33;;;;;;;68.10;26.58;;;;;;;24.12;45.79;100179.25;5034382;28;20144;-77
2022/08/27 04:45:59;;;;;;;67.55;26.83;;;;;;;24.09;46.12;100179.63;5033634;28;20050;-76
2022/08/27 04:48:25;;;;;;;55.25;25.70;;;;;;;24.06;45.75;100179.16;5012677;28;20048;-77
2022/08/27 04:50:51;;;;;;;75.78;25.55;;;;;;;24.17;45.86;100182.25;5037378;28;20057;-76
2022/08/27 04:53:18;;;;;;;60.35;25.55;;;;;;;24.02;45.97;100186.88;5032204;28;20049;-77
2022/08/27 04:55:46;;;;;;;80.30;26.38;;;;;;;23.98;46.40;100197.31;5034344;28;20136;-77
2022/08/27 04:58:14;;;;;;;70.45;30.05;;;;;;;24.14;46.75;100193.53;5000775;28;20056;-77
2022/08/27 05:00:47;;;;;;;82.40;29.85;;;;;;;24.27;46.89;100192.03;5035064;28;20041;-77
2022/08/27 05:03:15;;;;;;;75.43;32.50;;;;;;;24.43;46.54;100192.69;5051278;28;20060;-77
2022/08/27 05:05:42;;;;;;;81.57;31.42;;;;;;;24.64;46.14;100189.16;5035638;28;20531;-77
2022/08/27 05:08:11;;;;;;;80.65;32.88;;;;;;;24.75;45.98;100187.78;5033915;28;20528;-76
2022/08/27 05:10:57;;;;;;;84.85;33.20;;;;;;;25.13;45.36;100198.50;5035871;28;20041;-76
2022/08/27 05:13:23;;;;;;;93.90;32.42;;;;;;;25.48;45.04;100198.56;5050684;28;20037;-77
2022/08/27 05:15:57;;;;;;;76.60;30.38;;;;;;;25.74;44.46;100196.03;5036082;28;20059;-76
2022/08/27 05:18:23;;;;;;;88.47;38.22;;;;;;;25.85;44.48;100198.22;5035632;28;20040;-75
2022/08/27 05:20:48;;;;;;;79.65;35.55;;;;;;;26.06;44.17;100201.91;5033515;28;20083;-77
2022/08/27 05:23:16;;;;;;;78.03;43.33;;;;;;;26.23;43.69;100199.69;5035396;28;20055;-76
2022/08/27 05:25:44;;;;;;;87.22;41.13;;;;;;;26.33;43.42;100195.53;5018851;28;20072;-77
2022/08/27 05:28:12;;;;;;;102.93;43.00;;;;;;;26.49;43.20;100190.78;5051718;28;20381;-74
2022/08/27 05:30:43;;;;;;;100.72;46.40;;;;;;;26.65;42.66;100195.88;5017835;28;20044;-78
2022/08/27 05:33:11;;;;;;;121.68;58.35;;;;;;;26.53;42.85;100200.28;5018732;28;20087;-74
2022/08/27 05:35:44;;;;;;;147.43;70.30;;;;;;;26.50;42.87;100189.72;5051060;28;20041;-75
2022/08/27 05:38:13;;;;;;;157.38;74.15;;;;;;;26.39;43.14;100189.22;5052401;28;20045;-81
2022/08/27 05:40:40;;;;;;;156.18;73.70;;;;;;;26.25;43.41;100187.47;5018923;28;20451;-78
2022/08/27 05:43:06;;;;;;;114.00;49.67;;;;;;;26.15;42.08;100192.50;5052108;28;20049;-75
2022/08/27 05:45:39;;;;;;;107.50;51.67;;;;;;;25.99;42.86;100192.81;5050918;28;20048;-74
2022/08/27 05:48:05;;;;;;;106.57;45.85;;;;;;;25.90;42.64;100186.66;5017291;28;20041;-74
2022/08/27 05:50:30;;;;;;;97.80;47.25;;;;;;;25.95;43.13;100189.63;5034485;28;20079;-76
2022/08/27 05:52:56;;;;;;;105.03;49.67;;;;;;;26.10;43.21;100189.50;5050714;28;20041;-75
2022/08/27 05:55:22;;;;;;;122.25;45.67;;;;;;;26.40;42.49;100185.44;5017303;28;20110;-75
2022/08/27 05:57:49;;;;;;;94.68;41.13;;;;;;;26.72;41.77;100185.78;5050682;28;20139;-78
2022/08/27 06:02:59;;;;;;;111.72;39.80;;;;;;;26.89;40.63;100177.97;5051743;28;20106;-76
2022/08/27 06:05:25;;;;;;;115.03;37.28;;;;;;;26.88;40.57;100188.09;5052125;28;20496;-80
2022/08/27 06:07:53;;;;;;;116.68;35.65;;;;;;;27.07;40.17;100186.44;5018421;28;20037;-78
2022/08/27 06:10:19;;;;;;;121.85;39.58;;;;;;;27.17;40.00;100183.34;5052397;28;20055;-75
2022/08/27 06:12:44;;;;;;;139.57;36.75;;;;;;;27.17;39.79;100186.06;5016834;28;20047;-75
2022/08/27 06:15:11;;;;;;;149.98;37.70;;;;;;;27.16;39.98;100183.56;5019888;28;20068;-75
2022/08/27 06:17:37;;;;;;;137.80;37.78;;;;;;;27.18;40.22;100182.25;5036901;28;20131;-77
2022/08/27 06:20:03;;;;;;;167.05;36.15;;;;;;;27.32;39.32;100189.44;5035727;28;20129;-75
2022/08/27 06:22:29;;;;;;;189.38;37.40;;;;;;;27.36;39.71;100179.72;5002984;28;20488;-75
2022/08/27 06:24:56;;;;;;;182.20;36.13;;;;;;;27.55;39.13;100188.16;5030629;28;20122;-74
2022/08/27 06:27:21;;;;;;;184.48;36.75;;;;;;;28.01;38.60;100192.75;5046986;28;20472;-75
2022/08/27 06:29:47;;;;;;;195.82;34.85;;;;;;;28.47;38.26;100176.13;5030638;28;20041;-75
2022/08/27 06:32:13;;;;;;;243.98;41.47;;;;;;;28.83;36.99;100174.63;4998055;28;20037;-76
2022/08/27 06:34:40;;;;;;;231.77;40.42;;;;;;;28.87;36.55;100183.28;5046660;28;20136;-75
2022/08/27 06:37:06;;;;;;;245.75;41.72;;;;;;;28.65;36.86;100185.53;5030296;28;20041;-75
2022/08/27 06:39:34;;;;;;;262.55;43.42;;;;;;;28.87;37.08;100186.03;5013811;28;20571;-76
2022/08/27 06:42:01;;;;;;;254.45;41.63;;;;;;;29.33;36.76;100182.09;5014895;28;20072;-74
2022/08/27 06:44:32;;;;;;;286.02;42.45;;;;;;;29.72;35.42;100184.53;5035360;28;20049;-76
2022/08/27 06:46:58;;;;;;;292.83;46.80;;;;;;;29.52;34.61;100178.31;5051042;28;20111;-75
2022/08/27 06:49:24;;;;;;;267.85;42.80;;;;;;;29.64;34.53;100184.81;5034481;28;20138;-76
2022/08/27 06:51:50;;;;;;;181.18;38.40;;;;;;;29.57;34.13;100186.78;5034886;28;20505;-75
2022/08/27 06:54:18;;;;;;;176.30;34.42;;;;;;;29.55;33.83;100188.91;5001666;28;20500;-75
2022/08/27 06:56:45;;;;;;;;;;;;;;;29.73;33.86;100186.22;5034738;28;20045;-74
2022/08/27 06:59:14;;;;;;;153.15;31.15;;;;;;;29.62;33.79;100175.09;5001595;28;19978;-74
2022/08/27 07:01:42;;;;;;;134.18;29.80;;;;;;;30.06;33.26;100185.00;5034106;28;20072;-76
2022/08/27 07:04:10;;;;;;;;;;;;;;;29.96;32.48;100182.78;5018405;28;20037;-75
2022/08/27 07:06:37;;;;;;;83.18;23.75;;;;;;;30.11;33.12;100181.56;5034528;28;19967;-75
2022/08/27 07:09:04;;;;;;;87.07;22.75;;;;;;;30.48;32.36;100183.22;5035510;28;20053;-74
2022/08/27 07:11:32;;;;;;;92.20;21.83;;;;;;;30.54;31.13;100170.44;5051005;28;20054;-75
2022/08/27 07:13:59;;;;;;;81.30;21.25;;;;;;;30.15;31.47;100177.25;5050626;28;20049;-75
2022/08/27 07:16:27;;;;;;;56.80;20.38;;;;;;;29.83;31.62;100168.31;5033930;28;20451;-75
2022/08/27 07:18:56;;;;;;;80.80;17.70;;;;;;;29.83;31.45;100190.38;5034424;28;20564;-74
2022/08/27 07:21:23;;;;;;;61.65;17.25;;;;;;;30.08;31.24;100184.75;5033971;28;20135;-74
2022/08/27 07:23:51;;;;;;;42.00;15.80;;;;;;;29.95;31.14;100178.34;5034009;28;20042;-75
2022/08/27 07:26:19;;;;;;;60.58;15.15;;;;;;;30.43;31.42;100180.34;5017603;28;20049;-74
2022/08/27 07:28:46;;;;;;;43.17;13.73;;;;;;;30.95;30.86;100177.06;5034369;28;20073;-75
2022/08/27 07:31:15;;;;;;;39.92;12.18;;;;;;;31.20;29.45;100174.94;5050286;28;20132;-75
2022/08/27 07:33:42;;;;;;;33.22;12.68;;;;;;;30.71;29.42;100165.91;5050312;28;20366;-76
2022/08/27 07:36:08;;;;;;;25.90;10.60;;;;;;;30.61;29.42;100171.16;5034865;28;20037;-74
2022/08/27 07:38:35;;;;;;;32.88;12.65;;;;;;;30.76;29.60;100178.19;5035149;28;20038;-76
2022/08/27 07:41:07;;;;;;;28.67;11.85;;;;;;;30.53;29.72;100174.25;5050417;28;20045;-75
2022/08/27 07:46:20;;;;;;;30.85;11.18;;;;;;;30.54;30.08;100173.19;5050632;28;20060;-75
2022/08/27 07:48:48;;;;;;;32.25;10.55;;;;;;;31.07;29.17;100175.19;5050316;28;20038;-75
2022/08/27 07:51:17;;;;;;;25.20;9.68;;;;;;;31.41;28.40;100164.44;5033633;28;20144;-74
2022/08/27 07:53:44;;;;;;;21.67;9.10;;;;;;;31.57;28.13;100166.50;5049011;28;20045;-75
2022/08/27 07:56:11;;;;;;;23.97;9.27;;;;;;;31.91;27.29;100163.97;5033739;28;20484;-74
2022/08/27 07:58:38;;;;;;;21.48;9.07;;;;;;;32.33;27.08;100167.34;5034436;28;20064;-75
2022/08/27 08:01:04;;;;;;;21.88;9.30;;;;;;;32.58;26.86;100153.19;5033268;28;20037;-75
2022/08/27 08:03:30;;;;;;;17.00;8.63;;;;;;;32.08;26.80;100170.44;5016885;28;20037;-75
2022/08/27 08:06:05;;;;;;;17.27;8.48;;;;;;;31.92;27.58;100157.34;5016702;28;20044;-75
2022/08/27 08:08:33;;;;;;;16.52;8.63;;;;;;;32.11;27.12;100158.84;5050017;28;20052;-74
2022/08/27 08:11:01;;;;;;;14.57;7.50;;;;;;;32.44;27.09;100150.97;5049685;28;20060;-75
2022/08/27 08:13:27;;;;;;;16.38;8.05;;;;;;;32.73;26.45;100154.59;5050018;28;20049;-75
2022/08/27 08:15:53;;;;;;;15.32;7.75;;;;;;;32.64;26.44;100143.88;5049318;28;20053;-75
2022/08/27 08:18:18;;;;;;;19.17;7.95;;;;;;;32.47;26.08;100145.78;5049475;28;20064;-75
2022/08/27 08:20:46;;;;;;;27.20;8.13;;;;;;;32.74;26.12;100140.47;5034420;28;20131;-75
2022/08/27 08:23:12;;;;;;;41.53;8.85;;;;;;;32.89;25.75;100137.13;5034472;28;20049;-74
2022/08/27 08:25:38;;;;;;;36.47;9.57;;;;;;;33.08;25.93;100143.31;5016543;28;20079;-75
2022/08/27 08:28:04;;;;;;;28.48;8.68;;;;;;;33.27;25.31;100146.66;5033044;28;20041;-75
2022/08/27 08:30:30;;;;;;;23.75;8.10;;;;;;;32.76;26.02;100143.84;5032749;28;20103;-74
2022/08/27 08:32:55;;;;;;;23.13;8.00;;;;;;;32.83;26.29;100135.38;5032276;28;20075;-75
2022/08/27 08:35:23;;;;;;;11.05;7.95;;;;;;;33.07;26.25;100133.34;5033729;28;20056;-74
2022/08/27 08:37:49;;;;;;;14.10;8.30;;;;;;;33.17;26.23;100135.41;5035982;28;20041;-74
2022/08/27 08:40:37;;;;;;;16.17;8.20;;;;;;;33.59;25.57;100136.66;5053918;28;20041;-74
2022/08/27 08:43:09;;;;;;;18.38;8.18;;;;;;;33.79;25.34;100121.41;5032860;28;20067;-75
2022/08/27 08:45:38;;;;;;;24.25;7.40;;;;;;;33.32;24.69;100113.47;5016218;28;20151;-76
2022/08/27 08:48:18;;;;;;;16.08;7.47;;;;;;;32.79;25.05;100123.94;5033790;28;20038;-73
2022/08/27 08:50:52;;;;;;;24.42;7.22;;;;;;;32.94;25.18;100117.88;5032584;28;20049;-74
2022/08/27 08:53:43;;;;;;;16.65;7.20;;;;;;;32.78;25.02;100113.97;4999589;28;20574;-74
2022/08/27 08:56:20;;;;;;;17.70;6.93;;;;;;;33.01;24.89;100118.53;5032865;28;20064;-74
2022/08/27 08:58:57;;;;;;;17.98;6.68;;;;;;;33.74;24.33;100124.09;4999497;28;20420;-74
2022/08/27 09:01:25;;;;;;;19.33;7.10;;;;;;;33.83;24.00;100120.63;4999560;28;20053;-75
2022/08/27 09:03:56;;;;;;;16.50;7.18;;;;;;;33.91;23.80;100110.19;5031870;28;20119;-76
2022/08/27 09:06:35;;;;;;;22.38;7.35;;;;;;;34.20;23.92;100124.72;5033493;28;20057;-75
2022/08/27 09:09:24;;;;;;;10.90;6.60;;;;;;;33.59;23.97;100117.28;5010230;28;20412;-76
2022/08/27 09:12:02;;;;;;;9.20;6.53;;;;;;;33.99;23.60;100124.47;4999425;28;20042;-75
2022/08/27 09:14:45;;;;;;;9.02;6.75;;;;;;;34.26;22.68;100118.13;5015286;28;20455;-74
2022/08/27 09:17:13;;;;;;;16.02;6.85;;;;;;;34.25;22.59;100122.84;5032195;28;20578;-74
2022/08/27 09:19:39;;;;;;;14.60;6.43;;;;;;;34.49;22.80;100112.34;5015418;28;20040;-74
2022/08/27 09:22:13;;;;;;;18.60;6.97;;;;;;;35.07;22.15;100106.22;5033388;28;20412;-75
2022/08/27 09:25:05;;;;;;;19.90;6.40;;;;;;;35.30;21.63;100105.81;5034742;28;20072;-89
2022/08/27 09:27:34;;;;;;;19.30;5.93;;;;;;;34.86;21.26;100096.81;5032257;28;20411;-77
2022/08/27 09:30:08;;;;;;;14.45;6.93;;;;;;;34.86;21.57;100108.75;5015756;28;20080;-76
2022/08/27 09:32:34;;;;;;;14.15;6.18;;;;;;;34.94;21.20;100108.31;5013380;28;20042;-75
2022/08/27 09:35:07;;;;;;;12.50;5.47;;;;;;;34.82;21.14;100104.00;5031455;28;20053;-75
2022/08/27 09:37:43;;;;;;;12.23;5.78;;;;;;;34.15;21.36;100094.13;5031978;28;20041;-79
2022/08/27 09:40:18;;;;;;;12.52;5.65;;;;;;;34.00;21.87;100103.97;5015613;28;20515;-79
2022/08/27 09:42:49;;;;;;;21.40;7.47;;;;;;;33.84;22.45;100094.56;5032696;28;20048;-74
2022/08/27 09:45:22;;;;;;;14.95;6.10;;;;;;;33.29;22.58;100094.63;5032770;28;20057;-75
2022/08/27 09:48:01;;;;;;;19.42;6.18;;;;;;;33.82;23.19;100090.41;4999012;28;20049;-75
2022/08/27 09:50:37;;;;;;;12.52;6.32;;;;;;;34.65;22.28;100090.25;5033040;28;20427;-75
2022/08/27 09:53:03;;;;;;;16.00;6.43;;;;;;;35.30;21.56;100091.09;4998998;28;20044;-74
2022/08/27 09:55:43;;;;;;;20.77;6.20;;;;;;;35.47;21.15;100089.81;5014771;28;20110;-76
2022/08/27 09:58:22;;;;;;;14.15;5.95;;;;;;;35.23;20.88;100096.88;5014823;28;20052;-75
2022/08/27 10:01:15;;;;;;;20.48;6.97;;;;;;;35.51;20.48;100074.28;5031126;28;20626;-75
2022/08/27 10:03:42;;;;;;;15.95;5.60;;;;;;;35.45;20.41;100086.44;5031243;28;20140;-76
2022/08/27 10:06:09;;;;;;;9.55;5.65;;;;;;;35.29;20.44;100084.69;5014925;28;20045;-76
2022/08/27 10:08:47;;;;;;;13.75;5.70;;;;;;;35.72;20.49;100085.50;5014705;28;20140;-76
2022/08/27 10:11:21;;;;;;;;;;;;;;;36.12;20.53;100079.31;5015713;28;20045;-74
2022/08/27 10:14:00;;;;;;;22.08;5.93;;;;;;;36.43;19.99;100085.78;5031120;28;19917;-75
2022/08/27 10:16:42;;;;;;;9.55;4.85;;;;;;;36.43;18.62;100080.22;5033235;28;20119;-75
2022/08/27 10:19:29;;;;;;;12.32;5.15;;;;;;;36.24;18.94;100081.84;5052132;28;20219;-75
2022/08/27 10:22:06;;;;;;;7.50;5.07;;;;;;;36.59;18.16;100078.31;5035352;28;20047;-75
2022/08/27 10:24:53;;;;;;;5.63;4.78;;;;;;;36.74;18.39;100073.88;5020874;28;20148;-78
2022/08/27 10:27:33;;;;;;;13.80;4.68;;;;;;;36.92;18.06;100060.22;5046042;28;20163;-73
2022/08/27 10:30:15;;;;;;;10.93;4.82;;;;;;;37.14;17.85;100070.25;5038234;28;20395;-73
2022/08/27 10:33:06;;;;;;;11.27;5.32;;;;;;;37.47;17.93;100074.41;5022073;28;20048;-75
2022/08/27 10:35:48;;;;;;;7.85;5.07;;;;;;;37.55;17.41;100075.78;5038475;28;20055;-75
2022/08/27 10:38:22;;;;;;;10.68;5.40;;;;;;;38.15;17.28;100071.06;5022024;28;20128;-76
2022/08/27 10:41:00;;;;;;;19.63;5.32;;;;;;;38.62;17.38;100066.88;5038268;28;20492;-74
2022/08/27 10:44:10;;;;;;;13.95;5.93;;;;;;;39.15;17.58;100064.19;5054685;28;20554;-76
2022/08/27 10:46:57;;;;;;;14.55;6.15;;;;;;;39.58;17.49;100075.53;5055529;28;20135;-76
2022/08/27 10:49:23;;;;;;;;;;;;;;;39.24;17.72;100070.03;5031204;28;20045;-73
2022/08/27 10:52:20;;;;;;;21.92;6.30;;;;;;;39.04;17.89;100074.66;5035963;28;19921;-74
2022/08/27 10:54:57;;;;;;;16.23;6.50;;;;;;;39.24;17.83;100076.44;5034268;28;20053;-74
2022/08/27 10:57:32;;;;;;;15.20;6.15;;;;;;;39.29;17.68;100084.78;5034756;28;20041;-75
2022/08/27 11:00:09;;;;;;;11.93;5.15;;;;;;;39.48;17.53;100070.03;5002053;28;20049;-76
2022/08/27 11:02:57;;;;;;;18.13;5.10;;;;;;;39.63;16.75;100077.41;5018148;28;20132;-75
2022/08/27 11:05:31;;;;;;;;;;;;;;;39.63;16.14;100078.25;5018787;28;20512;-76
2022/08/27 11:08:06;;;;;;;16.13;5.32;;;;;;;39.77;15.82;100067.19;5051408;28;19917;-74
2022/08/27 11:10:37;;;;;;;6.05;4.57;;;;;;;39.80;16.22;100066.59;5018183;28;20049;-75
2022/08/27 11:13:09;;;;;;;8.70;4.72;;;;;;;39.07;16.76;100070.41;5035916;28;20586;-75
2022/08/27 11:15:43;;;;;;;7.70;4.93;;;;;;;38.18;17.25;100072.44;5034157;28;20536;-73
2022/08/27 11:18:30;;;;;;;16.13;5.20;;;;;;;37.89;17.62;100068.41;5034623;28;20045;-75
2022/08/27 11:20:58;;;;;;;;;;;;;;;38.04;17.38;100073.09;5034918;28;20048;-77
2022/08/27 11:24:21;;;;;;;10.10;4.75;;;;;;;37.87;17.28;100076.19;5034580;28;19917;-76
2022/08/27 11:26:53;;;;;;;8.10;4.25;;;;;;;37.42;17.91;100058.50;5033389;28;20140;-76
2022/08/27 11:29:34;;;;;;;12.13;4.93;;;;;;;38.33;17.23;100062.03;5031543;28;20535;-75
2022/08/27 11:32:25;;;;;;;11.55;4.45;;;;;;;38.86;16.73;100059.44;5028803;28;20049;-75
2022/08/27 11:34:57;;;;;;;11.95;5.13;;;;;;;39.27;16.55;100061.88;5034502;28;20049;-76
2022/08/27 11:37:55;;;;;;;12.25;5.00;;;;;;;39.57;16.67;100062.66;5018174;28;20037;-75
2022/08/27 11:40:46;;;;;;;13.73;4.90;;;;;;;39.92;16.70;100063.38;5017163;28;20446;-75